Strona główna
METAR-TAF:

METAR-TAF

Lotnisko :

Port lotniczy Szarm el-Szejk

Szarm el-Szejk, Egipt

Szerokość geograficzna: 27-58N, Długość geograficzna: 034-23E, wysokość: 50 m

Aktualna obserwacja pogody

Raport powstał 58 minut temu, godzina 00:00 UTC
Wiatr 3 kt od północ
Temperatura 22°C
Wilgotność 38%
Ciśnienie 1011 hPa
Widzialność 10 km lub więcej
Brak chmur poniżej 1500 m i brak chmur cumulonimbus

METAR: HESH 050000Z 36003KT CAVOK 22/07 Q1011 NOSIG

czas: 02:58 (00:58 UTC)

Prognoza

Raport powstał 1 godzina i 58 minut temu, godzina 23:00 UTC
Prognoza ważna od 05 godzina 00 UTC do 06 godzina 06 UTC
Wiatr 11 kt od południowo-południowy wschód
Widzialność 10 km lub więcej
Brak chmur poniżej 1500 m i brak chmur cumulonimbus

TAF: HESH 042300Z 0500/0606 16011KT CAVOK

Obserwacja i prognoza pogody dla ponad 4000 lotnisk (raport METAR i TAF).

Dostępne stacje oznaczono żółtymi i czerwonymi punktami na mapie.

Najedź kursorem aby zobaczyć nazwę stacji.

Kliknij aby zobaczyć obserwacje i prognozy pogody.

Aby zmienić mapę: kliknij na zielony przycisk z czarnym krzyżykiem, aby powiększyć; na zielony przycisk z myślnikiem, aby pomniejszyć; na zielone strzałki, aby przejść do map sąsiednich.


METAR-TAF: